NCAR-RAP Real-Time Weather Data

Output produced by METARs form (10 April 2020  07:28 UTC)
found at http://weather.rap.ucar.edu/surface/
 
KBZN 100656Z 14005KT 10SM CLR 02/M03 A2994 RMK AO2 SLP136 T00221028 401831033
KBZN 100556Z 14009KT 10SM CLR 02/M02 A2994 RMK AO2 SLP143 T00221022 10178 20022 51004
KBZN 100456Z 15005KT 10SM CLR 04/M02 A2994 RMK AO2 SLP144 T00441022
KBZN 100356Z 16008KT 10SM CLR 08/M01 A2994 RMK AO2 SLP142 T00781006
KBZN 100256Z 11007KT 10SM CLR 10/M03 A2993 RMK AO2 SLP142 T01001028 55004
KBZN 100156Z 10003KT 10SM CLR 13/M03 A2992 RMK AO2 SLP135 T01331033
KBZN 100056Z 06003KT 10SM CLR 18/M04 A2993 RMK AO2 SLP133 T01781044
KBZN 092356Z 00000KT 10SM CLR 17/M06 A2995 RMK AO2 SLP139 T01721056 10183 20106 56021
KBZN 092256Z VRB05KT 10SM CLR 17/M05 A2996 RMK AO2 SLP147 T01721050
KBZN 092156Z VRB03KT 10SM CLR 17/M05 A2999 RMK AO2 SLP155 T01671050
KBZN 092056Z 27007KT 10SM CLR 15/M05 A3002 RMK AO2 SLP165 T01501050 56029
KBZN 091956Z VRB05KT 10SM CLR 14/M06 A3004 RMK AO2 SLP171 T01441056
KBZN 091856Z 34005KT 10SM CLR 14/M04 A3008 RMK AO2 SLP181 T01391044
KBZN 091756Z 00000KT 10SM CLR 11/M04 A3011 RMK AO2 SLP199 T01061039 10111 21017 58020
KBZN 091656Z 00000KT 10SM CLR 07/M02 A3014 RMK AO2 SLP217 T00721022
KBZN 091556Z 36003KT 10SM CLR 06/M02 A3016 RMK AO2 SLP221 T00561022
KBZN 091456Z 33004KT 10SM CLR 01/M03 A3018 RMK AO2 SLP229 T00111033 50002
KBZN 091356Z 29003KT 10SM CLR M01/M04 A3018 RMK AO2 SLP230 T10061044
KBZN 091256Z 20003KT 10SM CLR M01/M06 A3018 RMK AO2 SLP227 T10111056
KBZN 091156Z 00000KT 10SM CLR M02/M06 A3017 RMK AO2 SLP220 T10221056 10044 21033 51005
KBZN 091056Z 13005KT 10SM CLR M03/M06 A3017 RMK AO2 SLP223 T10281061
KBZN 090956Z AUTO 15006KT 10SM CLR M02/M06 A3016 RMK AO2 SLP220 T10221056